x

9440910 - Toke Point, Wa (tokw1) Weather Station

10:54 - Tue 22nd Aug 2017 All times are PDT. -7 hours from GMT.

  • Wind
    5mph, 6mph gusts
  • Sea Temp 61°f
  • Luft Temp 58°f
  • Sea Pressure 1018.5mb
  • 9440910 - Toke Point, Wa
  • 9440910 - Toke Point, Wa

More Historic Weather Station data

Upgrade to MSW Pro to gain access to the past 30 days of data for over 8000 Wavebouys and Weather Stations around the globe.

Join

Comparision Forecast

View Surf forecast
   
Di 08/22 10:54 5 6 mph 1018.5mb 61f 58f
10:48 3 5 mph 1018.5mb 60f 58f
10:42 3 5 mph 1018.4mb 60f 58f
10:36 2 6 mph 1018.4mb 60f 58f
10:30 3 6 mph 1018.5mb 60f 57f
10:24 3 6 mph 1018.4mb 60f 57f
10:18 5 7 mph 1018.4mb 60f 56f
10:12 3 7 mph 1018.3mb 60f 56f
10:06 3 6 mph 1018.2mb 60f 56f
10:00 6 7 mph 1018.2mb 60f 56f
9:54 7 9 mph 1018.2mb 60f 56f
9:48 8 9 mph 1018.1mb 59f 56f
9:42 6 8 mph 1018.1mb 59f 56f
9:36 6 8 mph 1018mb 59f 56f
9:30 6 7 mph 1018mb 59f 57f
9:24 6 7 mph 1018mb 59f 57f
9:18 2 6 mph 1017.9mb 60f 57f
9:12 6 7 mph 1017.9mb 60f 57f
9:06 5 6 mph 1017.8mb 60f 57f
9:00 3 6 mph 1017.7mb 60f 57f
8:54 3 6 mph 1017.6mb 60f 56f
8:48 3 6 mph 1017.5mb 60f 56f
8:42 2 3 mph 1017.5mb 61f 56f
8:36 2 5 mph 1017.5mb 60f 56f
8:30 5 6 mph 1017.4mb 60f 56f
8:24 5 6 mph 1017.4mb 60f 56f
8:18  -  1 mph 1017.3mb 60f 56f
8:12 1 2 mph 1017.3mb 60f 56f
8:06 1 2 mph 1017.2mb 59f 56f
8:00  -  1 mph 1017.2mb 59f 56f
7:54 2 2 mph 1017.2mb 59f 55f
7:48 2 6 mph 1017.1mb 59f 56f
7:42 3 5 mph 1017.1mb 59f 56f
7:36 3 5 mph 1017mb 59f 56f
7:30 3 5 mph 1016.9mb 59f 56f
7:24 3 5 mph 1016.9mb 59f 55f
7:18 5 6 mph 1016.8mb 59f 55f
7:12 5 6 mph 1016.7mb 59f 55f
7:06 5 6 mph 1016.6mb 59f 55f
7:00 5 6 mph 1016.6mb 59f 55f
6:54 5 6 mph 1016.6mb 59f 55f
6:48 5 6 mph 1016.6mb 59f 55f
6:42 6 7 mph 1016.5mb 59f 54f
6:36 7 8 mph 1016.5mb 59f 54f
6:30 8 9 mph 1016.5mb 59f 54f
6:24 7 8 mph 1016.4mb 59f 55f
6:18 7 8 mph 1016.3mb 59f 55f
6:12 7 7 mph 1016.2mb 59f 55f
6:06 8 9 mph 1016.1mb 59f 55f
6:00 8 9 mph 1016.1mb 59f 55f
5:54 9 10 mph 1016mb 59f 54f
5:48 10 13 mph 1016mb 59f 54f
5:42 11 14 mph 1015.9mb 59f 54f
5:36 13 14 mph 1015.9mb 59f 55f
5:30 11 13 mph 1015.8mb 59f 55f
5:24 10 11 mph 1015.9mb 59f 55f
5:18 8 9 mph 1015.8mb 59f 55f
5:12 8 9 mph 1015.8mb 59f 55f
5:06 9 13 mph 1015.7mb 59f 55f
5:00 11 11 mph 1015.6mb 59f 55f
4:54 9 9 mph 1015.7mb 59f 55f
4:48 9 9 mph 1015.7mb 59f 55f
4:42 9 10 mph 1015.6mb 58f 56f
4:36 10 10 mph 1015.6mb 58f 55f
4:30 9 9 mph 1015.6mb 58f 56f
4:24 7 9 mph 1015.7mb 58f 56f
4:18 8 9 mph 1015.6mb 58f 56f
4:12 8 9 mph 1015.6mb 58f 56f
4:06 8 9 mph 1015.6mb 58f 56f
4:00 9 10 mph 1015.5mb 58f 56f
3:54 8 9 mph 1015.5mb 58f 56f
3:48 7 9 mph 1015.6mb 58f 56f
3:42 8 9 mph 1015.6mb 58f 56f
3:36 8 8 mph 1015.6mb 58f 56f
3:30 7 7 mph 1015.6mb 58f 56f
3:24 7 8 mph 1015.6mb 58f 57f
3:18 8 8 mph 1015.6mb 58f 57f
3:12 8 8 mph 1015.5mb 58f 57f
3:06 8 9 mph 1015.5mb 57f 57f
3:00 8 9 mph 1015.5mb 57f 57f
2:54 7 8 mph 1015.5mb 57f 56f
2:48 7 8 mph 1015.5mb 57f 56f
2:42 8 9 mph 1015.5mb 57f 56f
2:36 9 10 mph 1015.5mb 56f 56f
2:30 10 11 mph 1015.5mb 56f 56f
2:24 9 11 mph 1015.5mb 56f 56f
2:18 9 10 mph 1015.5mb 56f 56f
2:12 9 10 mph 1015.5mb 56f 56f
2:06 9 10 mph 1015.5mb 56f 56f
2:00 9 10 mph 1015.5mb 56f 56f
1:54 10 10 mph 1015.4mb 56f 56f
1:48 9 10 mph 1015.4mb 56f 57f
1:42 10 10 mph 1015.4mb 56f 57f
1:36 9 9 mph 1015.4mb 57f 57f
1:30 8 9 mph 1015.4mb 57f 57f
1:24 8 9 mph 1015.5mb 57f 57f
1:18 8 9 mph 1015.5mb 57f 57f
1:12 7 8 mph 1015.5mb 57f 57f
1:06 6 7 mph 1015.6mb 57f 58f
1:00 7 8 mph 1015.6mb 57f 58f
12:54 6 8 mph 1015.6mb 58f 58f
12:48 7 8 mph 1015.6mb 58f 58f
12:42 8 9 mph 1015.6mb 58f 58f
12:36 9 10 mph 1015.6mb 58f 58f
12:30 8 10 mph 1015.7mb 58f 58f
12:24 8 9 mph 1015.7mb 58f 58f
12:18 8 9 mph 1015.7mb 58f 58f
12:12 7 8 mph 1015.8mb 58f 58f
12:06 6 7 mph 1015.8mb 59f 59f
12:00 5 7 mph 1015.8mb 59f 59f
Mo 08/21 11:54 6 7 mph 1015.7mb 59f 59f
11:48 5 6 mph 1015.7mb - -
11:42 5 6 mph 1015.7mb - -
11:36 5 6 mph 1015.7mb - -
11:30 6 6 mph 1015.7mb 61f 59f
11:24 5 6 mph 1015.7mb 61f 59f
11:18 6 8 mph 1015.8mb 62f 60f
11:12 7 8 mph 1015.8mb 62f 61f
11:06 8 8 mph 1015.8mb 62f 61f
11:00 7 8 mph 1015.8mb 62f 61f
10:54 5 6 mph 1015.8mb 62f 61f
10:48 6 7 mph 1015.8mb 62f 61f
10:42 6 6 mph 1015.8mb 63f 61f
10:36 5 6 mph 1015.8mb 63f 61f
10:30 5 6 mph 1015.7mb 63f 62f
10:24 5 6 mph 1015.8mb 64f 62f
10:18 5 6 mph 1015.8mb 64f 62f
10:12 6 7 mph 1015.8mb 64f 62f
10:06 6 6 mph 1015.7mb 64f 62f
10:00 6 7 mph 1015.7mb 64f 62f
9:54 6 7 mph 1015.7mb 64f 62f
9:48 6 7 mph 1015.7mb 64f 62f
9:42 6 7 mph 1015.6mb 64f 62f
9:36 5 5 mph 1015.6mb 64f 62f
9:30 3 3 mph 1015.7mb 64f 62f
9:24 3 7 mph 1015.7mb 64f 63f
9:18 7 10 mph 1015.6mb 64f 63f
9:12 9 13 mph 1015.6mb 64f 63f
9:06 11 14 mph 1015.5mb 64f 63f
9:00 11 14 mph 1015.5mb 64f 63f
8:54 13 15 mph 1015.6mb 64f 63f
8:48 11 16 mph 1015.6mb 64f 63f
8:42 15 20 mph 1015.4mb 64f 64f
8:36 17 21 mph 1015.3mb 64f 64f
8:30 18 22 mph 1015.3mb 64f 64f
8:24 20 22 mph 1015.2mb 64f 64f
8:18 20 22 mph 1015.2mb 63f 64f
8:12 17 21 mph 1015.3mb 63f 65f
8:06 18 21 mph 1015.3mb 64f 65f
8:00 17 21 mph 1015.3mb 64f 65f
7:54 17 21 mph 1015.3mb 64f 65f
7:48 18 21 mph 1015.3mb 64f 66f
7:42 17 21 mph 1015.3mb 64f 66f
7:36 18 20 mph 1015.3mb 64f 66f
7:30 17 20 mph 1015.4mb 64f 67f
7:24 17 21 mph 1015.4mb 64f 67f
7:18 18 22 mph 1015.4mb 64f 67f
7:12 20 22 mph 1015.3mb 64f 67f
7:06 21 23 mph 1015.4mb 64f 67f
7:00 21 23 mph 1015.4mb 64f 67f
6:54 22 23 mph 1015.4mb 64f 67f
6:48 20 23 mph 1015.4mb 64f 68f
6:42 18 22 mph 1015.5mb 64f 67f
6:36 18 22 mph 1015.5mb 64f 68f
6:30 21 24 mph 1015.6mb 64f 68f
6:24 22 24 mph 1015.6mb 64f 68f
6:18 21 24 mph 1015.6mb 64f 68f
6:12 20 22 mph 1015.7mb 64f 69f
6:06 18 22 mph 1015.7mb 64f 69f
6:00 20 23 mph 1015.7mb 64f 70f
5:54 21 23 mph 1015.7mb 64f 70f
5:48 21 22 mph 1015.7mb 64f 70f
5:42 21 23 mph 1015.8mb 64f 71f
5:36 22 24 mph 1015.8mb 64f 71f
5:30 20 24 mph 1015.9mb 64f 72f
5:24 20 22 mph 1016mb 63f 73f
5:18 18 22 mph 1016mb 63f 73f
5:12 17 20 mph 1016.1mb 63f 73f
5:06 16 20 mph 1016.2mb 63f 73f
5:00 17 20 mph 1016.2mb 63f 73f
4:54 17 22 mph 1016.3mb 63f 73f
4:48 17 18 mph - - -
4:42 16 20 mph 1016.5mb 62f 73f
4:36 16 20 mph 1016.5mb 62f 73f
4:30 17 20 mph 1016.6mb 62f 73f
4:24 18 23 mph 1016.7mb 62f 72f
4:18 20 23 mph 1016.7mb 62f 72f
4:12 22 23 mph 1016.8mb 61f 72f
4:06 17 22 mph 1016.8mb 61f 72f
4:00 20 22 mph 1016.9mb 61f 71f
3:54 18 21 mph 1016.9mb 60f 72f
3:48 16 18 mph - - -
3:42 16 18 mph 1017mb 60f 73f
3:36 15 17 mph 1017.1mb 59f 72f
3:30 16 20 mph 1017.1mb 58f 72f
3:24 17 18 mph 1017.2mb 58f 71f
3:18 16 18 mph 1017.3mb 58f 72f
3:12 17 20 mph 1017.3mb 58f 72f
3:06 16 18 mph 1017.3mb 58f 72f
3:00 17 20 mph 1017.3mb 58f 72f
2:54 13 15 mph 1017.5mb 57f 71f
2:48 11 14 mph 1017.6mb 57f 73f
2:42 13 17 mph 1017.6mb 56f 73f
2:36 10 15 mph 1017.7mb 56f 74f
2:30 13 14 mph 1017.7mb 56f 76f
2:24 2 3 mph 1017.8mb 56f 74f
2:18 2 5 mph 1017.8mb 56f 75f
2:12 2 5 mph 1017.9mb 56f 75f
2:06 2 6 mph 1018mb 56f 75f
2:00 1 2 mph 1018.1mb 56f 75f
1:54  -  2 mph 1018.2mb 56f 77f
1:48 2 5 mph 1018.2mb 56f 75f
1:42 2 5 mph 1018.3mb 56f 73f
1:36 1 3 mph 1018.4mb 56f 73f
1:30  -  2 mph 1018.4mb 57f 73f
1:24 2 2 mph 1018.5mb 57f 71f
1:18  -  3 mph 1018.5mb 57f 72f
1:12 2 5 mph 1018.6mb 58f 70f
1:06 3 5 mph 1018.7mb 58f 70f
1:00 3 5 mph 1018.7mb 58f 69f
12:54 5 6 mph 1018.8mb 59f 69f
12:48 3 5 mph 1018.9mb 60f 68f
12:42 3 6 mph 1019mb 60f 68f
12:36 5 7 mph 1019mb 61f 68f
12:30 2 5 mph 1019.1mb 61f 69f
12:24 2 2 mph 1019.1mb 61f 68f
12:18 2 3 mph 1019.2mb 61f 68f
12:12 2 2 mph 1019.2mb 61f 67f
12:06 1 3 mph 1019.3mb 61f 67f
12:00 1 2 mph 1019.4mb 61f 66f
11:54  -  3 mph 1019.4mb 61f 66f
11:48 2 5 mph 1019.5mb 61f 65f
11:42 5 6 mph 1019.5mb 61f 65f
11:36 2 5 mph 1019.6mb 61f 65f
11:30 5 6 mph 1019.6mb 61f 64f
11:24 5 6 mph 1019.6mb 61f 64f
11:18 5 6 mph 1019.6mb 62f 63f
11:12 3 3 mph 1019.7mb 62f 63f
11:06 2 3 mph 1019.7mb 62f 62f
11:00 2 2 mph 1019.7mb 62f 62f
10:54 1 1 mph 1019.7mb 62f 62f
10:48 2 2 mph 1019.7mb 62f 61f
10:42 1 1 mph 1019.7mb 62f 61f
10:36  -  1 mph 1019.6mb 62f 61f
10:30 1 2 mph 1019.7mb 62f 60f
10:24 2 2 mph 1019.7mb 62f 60f
10:18  -  3 mph 1019.7mb 62f 61f
10:12 3 3 mph 1019.7mb 62f 61f
10:06 2 2 mph 1019.6mb 62f 62f
10:00 2 2 mph 1019.6mb 62f 62f
9:54 2 2 mph 1019.6mb 61f 62f
9:48 2 3 mph 1019.7mb 61f 62f
9:42 2 5 mph 1019.8mb 61f 61f
9:36 5 6 mph 1019.7mb 61f 60f
9:30 6 6 mph 1019.8mb 60f 60f
9:24 6 7 mph 1019.8mb 61f 60f
9:18 6 6 mph 1019.8mb 61f 60f
9:12 5 7 mph 1019.8mb 60f 60f
9:06 6 7 mph 1019.8mb 60f 59f
9:00 6 8 mph 1019.9mb 60f 59f
8:54 6 7 mph 1019.9mb 60f 58f
8:48 6 7 mph 1019.9mb 60f 58f
8:42 6 7 mph 1019.9mb 60f 58f
8:36 6 7 mph 1019.9mb 61f 58f
8:30 7 8 mph 1019.9mb 61f 58f
8:24 6 7 mph 1019.9mb 61f 58f
8:18 6 7 mph 1019.9mb 61f 57f
8:12 6 7 mph 1019.8mb 61f 57f
8:06 6 7 mph 1019.9mb 61f 57f
8:00 6 7 mph 1019.9mb 60f 57f
7:54 7 8 mph 1019.9mb 59f 56f
7:48 7 8 mph 1019.9mb 58f 56f
7:42 1 3 mph 1019.8mb 57f 58f
7:36 3 7 mph 1019.8mb 57f 57f
7:30 6 8 mph 1019.8mb 57f 57f
7:24 8 9 mph 1019.8mb 57f 56f
7:18 8 9 mph 1019.8mb 57f 56f
7:12 7 7 mph 1019.9mb 57f 56f
7:06 6 7 mph 1019.9mb 57f 56f
7:00 3 5 mph 1019.9mb 58f 56f
6:54 5 6 mph 1019.8mb 58f 56f
6:48 6 7 mph 1019.9mb 59f 55f
6:42 7 8 mph 1019.8mb 60f 55f
6:36 7 7 mph 1019.8mb 60f 55f
6:30 7 7 mph 1019.9mb 60f 55f
6:24 7 7 mph 1019.9mb 60f 55f
6:18 6 6 mph 1019.9mb 60f 55f
6:12 5 6 mph 1019.9mb 60f 55f
6:06 5 6 mph 1019.8mb 60f 55f
6:00 6 6 mph 1019.8mb 60f 55f
5:54 6 6 mph 1019.9mb 60f 55f
5:48 5 6 mph 1019.9mb 60f 55f
5:42 6 6 mph 1019.8mb 60f 56f
5:36 6 6 mph 1019.8mb 60f 56f
5:30 3 5 mph 1019.9mb 60f 56f
5:24 5 6 mph 1019.9mb 60f 56f
5:18 2 3 mph 1019.9mb 60f 56f
5:12 1 3 mph 1020mb 60f 56f
5:06 3 5 mph 1019.9mb 60f 56f
5:00 3 6 mph 1019.9mb 60f 56f
4:54 5 6 mph 1019.9mb 60f 56f
4:48 5 6 mph 1019.8mb 60f 56f
4:42 5 6 mph 1019.8mb 60f 56f
4:36 5 7 mph 1019.8mb 59f 56f
4:30 6 7 mph 1019.8mb 60f 56f
4:24 7 9 mph 1019.7mb 60f 56f
4:18 7 9 mph 1019.6mb 60f 56f
4:12 8 10 mph 1019.6mb 60f 56f
4:06 6 8 mph 1019.7mb 60f 57f
4:00 6 9 mph 1019.6mb 59f 56f
3:54 6 7 mph 1019.6mb 60f 56f
3:48 6 7 mph 1019.7mb 59f 56f
3:42 5 6 mph 1019.7mb 59f 57f
3:36 2 5 mph 1019.8mb 59f 56f
3:30 3 5 mph 1019.9mb 59f 56f
3:24 5 6 mph 1019.9mb 59f 56f
3:18 5 6 mph 1019.9mb 59f 56f
3:12 3 7 mph 1020mb 59f 57f
3:06 6 6 mph 1020mb 58f 57f
3:00 6 6 mph 1020.1mb 59f 57f
2:54 3 6 mph 1020.1mb 59f 57f
2:48 2 5 mph 1020.1mb 58f 57f
2:42 3 6 mph 1020.2mb 59f 57f
2:36 5 6 mph 1020.2mb 58f 57f
2:30 6 6 mph 1020.2mb 58f 57f
2:24 6 7 mph 1020.2mb 58f 57f
2:18 6 7 mph 1020.3mb 58f 57f
2:12 6 7 mph 1020.3mb 58f 57f
2:06 6 7 mph 1020.4mb 58f 57f
2:00 6 7 mph 1020.4mb 58f 57f
1:54 5 7 mph 1020.4mb 58f 57f
1:48 6 7 mph 1020.3mb 57f 57f
1:42 7 9 mph 1020.4mb 57f 57f
1:36 7 8 mph 1020.4mb 57f 57f
1:30 8 9 mph 1020.4mb 57f 57f
1:24 7 9 mph 1020.4mb 57f 57f
1:18 8 11 mph 1020.4mb 57f 57f
1:12 8 11 mph 1020.4mb 57f 57f
1:06 9 13 mph 1020.4mb 57f 58f
1:00 10 11 mph 1020.3mb 57f 58f
12:54 7 8 mph 1020.4mb 57f 58f
12:48 3 10 mph 1020.4mb 58f 58f
12:42 8 11 mph 1020.4mb 58f 58f
12:36 8 11 mph 1020.4mb 58f 58f
12:30 7 9 mph 1020.4mb 58f 58f
12:24 9 11 mph 1020.4mb 58f 58f
12:18 8 13 mph 1020.4mb 58f 58f
12:12 8 9 mph 1020.4mb 58f 58f
12:06 9 11 mph 1020.4mb 58f 58f
12:00 7 11 mph 1020.4mb 58f 58f
So 08/20 11:54 11 14 mph 1020.4mb 58f 58f
11:48 6 9 mph 1020.4mb 58f 58f
11:42 7 9 mph 1020.4mb - -
11:36 7 9 mph 1020.4mb - -
11:30 8 10 mph 1020.4mb 59f 58f
11:24 7 10 mph 1020.4mb 59f 59f
11:18 6 11 mph 1020.4mb 59f 59f
11:12 9 11 mph 1020.3mb 59f 59f
11:06 13 16 mph 1020.3mb 60f 59f
11:00 13 14 mph 1020.3mb 60f 59f
10:54 9 14 mph 1020.4mb 60f 59f
10:48 9 11 mph 1020.5mb 60f 59f
10:42 7 9 mph 1020.5mb - -
10:36 7 8 mph 1020.5mb - -
10:30 5 6 mph 1020.6mb 61f 59f
10:24 2 5 mph 1020.5mb 61f 59f
10:18 5 6 mph 1020.6mb 62f 59f
10:12 3 6 mph 1020.6mb 62f 59f
10:06 5 6 mph 1020.7mb 62f 59f
10:00 6 9 mph 1020.7mb 62f 59f
9:54 7 13 mph 1020.6mb 62f 59f
9:48 9 14 mph 1020.5mb 62f 60f
9:42 9 13 mph 1020.5mb 62f 59f
9:36 10 13 mph 1020.5mb 63f 59f
9:30 10 13 mph 1020.5mb 63f 60f
9:24 9 13 mph 1020.5mb 64f 60f
9:18 9 11 mph 1020.6mb 64f 60f
9:12 9 11 mph 1020.6mb 64f 60f
9:06 7 10 mph 1020.7mb 64f 60f
9:00 7 10 mph 1020.7mb 64f 60f
8:54 8 11 mph 1020.6mb 64f 60f
8:48 7 9 mph 1020.6mb 64f 60f
8:42 7 11 mph 1020.5mb 64f 60f
8:36 9 13 mph 1020.5mb 64f 61f
8:30 8 13 mph 1020.4mb 64f 61f
8:24 11 15 mph 1020.3mb 64f 60f
8:18 10 15 mph 1020.2mb 64f 61f
8:12 10 15 mph 1020.2mb 64f 61f
8:06 14 16 mph 1020.2mb 64f 61f
8:00 11 14 mph 1020.2mb 64f 61f
7:54 9 11 mph 1020.2mb 64f 61f
7:48 8 11 mph 1020.3mb 63f 61f
7:42 8 13 mph 1020.3mb 64f 62f
7:36 9 11 mph 1020.3mb 64f 62f
7:30 7 9 mph 1020.3mb 64f 62f
7:24 7 9 mph 1020.3mb 64f 62f
7:18 7 9 mph 1020.2mb 64f 62f
7:12 10 17 mph 1020.2mb 64f 62f
7:06 10 18 mph 1020.1mb 64f 62f
7:00 8 11 mph 1020.2mb 64f 62f
6:54 8 14 mph 1020.2mb 64f 62f
6:48 11 17 mph 1020.1mb 64f 62f
6:42 9 18 mph 1020.1mb 64f 62f
6:36 15 20 mph 1020.2mb 64f 62f
6:30 11 16 mph 1020.2mb 64f 63f
6:24 15 23 mph 1020.1mb 64f 63f
6:18 17 22 mph 1020.1mb 64f 64f
6:12 16 22 mph 1020.2mb 64f 64f
6:06 16 18 mph 1020.1mb 64f 64f
6:00 11 15 mph 1020.1mb 64f 65f
5:54 9 11 mph 1020.2mb 64f 65f
5:48 7 11 mph 1020.2mb 64f 66f
5:42 10 16 mph 1020.1mb 64f 65f
5:36 14 21 mph 1020.1mb 64f 65f
5:30 16 21 mph 1020mb 64f 65f
5:24 16 23 mph 1020mb 64f 64f
5:18 23 29 mph 1020.3mb 64f 64f
5:12 20 26 mph 1020.4mb 64f 65f
5:06 20 23 mph 1020.6mb 64f 65f
5:00 16 20 mph 1020.6mb 63f 66f
4:54 14 20 mph 1020.5mb 63f 66f
4:48 14 18 mph 1020.4mb 63f 66f
4:30 18 22 mph 1020.5mb 63f 66f
4:24 15 23 mph 1020.6mb 63f 66f
4:18 16 22 mph 1020.6mb 63f 66f
4:12 20 24 mph 1020.6mb 63f 66f
4:06 17 22 mph 1020.6mb 63f 66f
4:00 11 18 mph 1020.8mb 62f 66f
3:54 16 20 mph 1020.8mb 62f 66f
3:48 14 21 mph 1020.8mb 62f 66f
3:42 16 22 mph 1020.8mb 62f 66f
3:36 17 22 mph 1020.8mb 62f 65f
3:30 20 23 mph 1020.8mb 62f 65f
3:24 18 23 mph 1020.9mb 61f 65f
3:18 18 22 mph 1020.9mb 61f 66f
3:12 16 21 mph 1021mb 60f 65f
3:06 15 17 mph 1021mb 60f 66f
3:00 15 22 mph 1021mb 60f 66f
2:54 14 18 mph 1021mb 59f 66f
2:48 11 17 mph 1021mb 59f 66f
2:42 14 18 mph 1021.1mb 58f 66f
2:36 7 14 mph 1021.2mb 58f 66f
2:30 10 15 mph 1021.2mb 57f 65f
2:24 10 14 mph 1021.3mb 57f 66f
2:18 10 14 mph 1021.3mb 57f 65f
2:12 11 16 mph 1021.3mb 57f 65f
2:06 13 16 mph 1021.3mb 57f 65f
2:00 11 13 mph 1021.3mb 57f 64f
1:54 10 14 mph 1021.4mb 57f 64f
1:48 10 13 mph 1021.4mb 57f 64f
1:42 9 16 mph 1021.4mb 57f 63f
1:36 13 15 mph 1021.4mb 57f 63f
1:30 11 16 mph 1021.4mb 57f 63f
1:24 13 15 mph 1021.4mb 57f 64f
1:18 14 16 mph 1021.4mb 57f 64f
1:12 11 14 mph 1021.5mb 58f 64f
1:06 9 11 mph 1021.5mb 58f 64f
1:00 8 15 mph 1021.5mb 58f 65f
12:54 10 14 mph 1021.4mb 59f 64f
12:48 11 14 mph 1021.4mb 59f 65f
12:42 10 14 mph 1021.4mb 59f 65f
12:36 9 13 mph 1021.3mb 59f 65f
12:30 8 11 mph 1021.3mb 59f 65f
12:24 10 14 mph 1021.3mb 60f 65f
12:18 9 11 mph 1021.3mb 60f 65f
12:12 10 13 mph 1021.3mb 60f 65f
12:06 11 11 mph 1021.3mb 60f 64f
12:00 8 9 mph 1021.3mb 60f 64f
11:54 8 9 mph 1021.3mb 60f 64f
11:48 9 11 mph 1021.4mb 60f 63f
11:42 7 9 mph 1021.5mb 61f 64f
11:36 3 5 mph 1021.5mb 60f 63f
11:30 5 6 mph 1021.6mb 60f 62f
11:24 6 8 mph 1021.6mb 60f 63f
11:18 1 5 mph 1021.6mb 60f 63f
11:12 5 6 mph 1021.7mb 60f 62f
11:06 5 6 mph 1021.6mb 60f 62f
11:00 6 7 mph 1021.6mb 61f 61f
10:54 7 10 mph 1021.7mb 61f 61f
10:48 6 9 mph 1021.7mb 61f 63f
10:42 8 9 mph 1021.7mb 61f 63f
10:36 7 9 mph 1021.7mb 61f 63f
10:30 10 13 mph 1021.8mb 62f 62f
10:24 11 15 mph 1021.8mb 62f 62f
10:18 14 16 mph 1021.9mb 62f 62f
10:12 13 15 mph 1022mb 61f 62f
10:06 5 9 mph 1022.1mb 61f 61f
10:00 5 14 mph 1022.2mb 61f 60f
9:54 13 20 mph 1022.1mb 61f 61f
9:48 17 22 mph 1022mb 61f 61f
9:42 16 20 mph 1022mb 61f 61f
9:36 15 20 mph 1022.1mb 61f 61f
9:30 15 20 mph 1022.1mb 61f 61f
9:24 14 22 mph 1022.1mb 61f 61f
9:18 10 17 mph 1022.1mb 61f 61f
9:12 6 15 mph 1022.2mb 61f 60f
9:06 2 5 mph 1022.2mb 60f 59f
9:00 6 8 mph 1022.2mb 60f 58f
8:54 2 5 mph 1022.2mb 60f 58f
8:48 2 6 mph 1022.1mb 60f 57f
8:42 5 6 mph 1022.1mb 60f 57f
8:36 5 6 mph 1022.1mb 60f 56f
8:30 6 7 mph 1022mb 60f 56f
8:24 6 7 mph 1022mb 60f 55f
8:18 6 7 mph 1022mb 60f 55f
8:12 6 6 mph 1022mb 60f 55f
8:06 6 7 mph 1022mb 60f 55f
8:00 6 7 mph 1021.9mb 60f 55f
7:54 6 7 mph 1021.9mb 60f 55f
7:48 6 7 mph 1021.9mb 60f 55f
7:42 6 7 mph 1022mb 61f 54f
7:36 6 6 mph 1022mb 61f 54f
7:30 6 6 mph 1022mb 61f 54f
7:24 5 6 mph 1021.9mb 61f 54f
7:18 6 6 mph 1022mb 60f 54f
7:12 6 7 mph 1021.9mb 60f 54f
7:06 5 7 mph 1021.9mb 58f 54f
7:00 6 6 mph 1021.9mb 56f 55f
6:54 5 6 mph 1021.9mb 56f 55f
6:48 6 7 mph 1021.9mb 56f 54f
6:42 6 7 mph 1021.8mb 57f 55f
6:36 5 6 mph 1021.8mb 57f 55f
6:30 5 6 mph 1021.8mb 58f 55f
6:24 5 6 mph 1021.8mb 58f 55f
6:18 5 6 mph 1021.9mb 59f 55f
6:12 5 6 mph 1021.9mb 59f 55f
6:06 5 6 mph 1021.9mb 59f 55f
6:00 5 6 mph 1021.9mb 60f 55f
5:54 5 6 mph 1021.8mb 60f 55f
5:48 5 6 mph 1021.8mb 60f 55f
5:42 5 6 mph 1021.7mb 60f 56f
5:36 5 7 mph 1021.7mb 60f 56f
5:30 5 7 mph 1021.7mb 60f 56f
5:24 6 9 mph 1021.7mb 60f 56f
5:18 10 11 mph 1021.7mb 60f 56f
5:12 8 10 mph 1021.7mb 60f 56f
5:06 9 13 mph 1021.7mb 60f 56f
5:00 7 9 mph 1021.7mb 60f 56f
4:54 7 9 mph 1021.7mb 60f 56f
4:48 6 10 mph 1021.7mb 60f 56f
4:42 8 13 mph 1021.8mb 60f 57f
4:36 8 13 mph 1021.8mb 60f 57f
4:30 10 13 mph 1021.8mb 60f 57f
4:24 10 13 mph 1021.8mb 60f 57f
4:18 10 14 mph 1021.8mb 60f 57f
4:12 8 10 mph 1021.9mb 60f 57f
4:06 6 9 mph 1021.9mb 60f 57f
4:00 8 11 mph 1022mb 60f 57f
3:54 6 9 mph 1022mb 60f 57f
3:48 7 8 mph 1022mb 60f 57f
3:42 5 7 mph 1021.9mb 60f 57f
3:36 5 9 mph 1022mb 60f 57f
3:30 7 8 mph 1022.1mb 60f 57f
3:24 7 9 mph 1022mb 60f 57f
3:18 6 8 mph 1022.1mb 60f 57f
3:12 6 8 mph 1022.1mb 59f 57f
3:06 6 7 mph 1022.1mb 59f 57f
3:00 5 7 mph 1022mb 59f 57f
2:54 6 7 mph 1022mb 59f 57f
2:48 5 8 mph 1022.1mb 59f 57f
2:42 6 9 mph 1022.1mb 59f 57f
2:36 5 9 mph 1022.1mb 59f 57f
2:30 6 11 mph 1022.1mb 59f 57f
2:24 7 11 mph 1022.2mb 59f 57f
2:18 7 9 mph 1022.3mb 59f 57f
2:12 8 11 mph 1022.3mb 59f 57f
2:06 8 9 mph 1022.3mb 59f 57f
2:00 8 15 mph 1022.3mb 59f 57f
1:54 10 15 mph 1022.3mb 59f 57f
1:48 9 11 mph 1022.4mb 59f 57f
1:42 7 10 mph 1022.4mb 59f 57f
1:36 9 11 mph 1022.4mb 59f 57f
1:30 8 14 mph 1022.5mb 59f 57f
1:24 9 10 mph 1022.4mb 59f 57f
1:18 5 10 mph 1022.4mb 59f 57f
1:12 8 10 mph 1022.3mb 59f 57f
1:06 5 8 mph 1022.4mb 58f 57f
1:00 6 8 mph 1022.5mb 58f 57f
12:54 6 10 mph 1022.5mb 58f 57f
12:48 3 5 mph 1022.4mb 58f 57f
12:42 1 6 mph 1022.4mb 58f 57f
12:36 3 7 mph 1022.4mb 58f 57f
12:30 6 11 mph 1022.5mb 58f 57f
12:24 6 8 mph 1022.5mb 58f 57f
12:18 5 8 mph 1022.5mb 58f 57f
12:12 7 8 mph 1022.6mb 58f 57f
12:06 6 8 mph 1022.6mb 58f 57f
12:00 5 9 mph 1022.7mb 58f 57f
Sa 08/19 11:54 6 8 mph 1022.7mb 58f 57f
11:48 3 5 mph 1022.7mb 58f -
11:42 2 5 mph 1022.7mb 58f -
11:36 2 3 mph 1022.7mb 59f -
11:30 1 7 mph 1022.7mb 59f 57f
11:24 3 6 mph 1022.7mb 59f 57f
11:18 2 8 mph 1022.7mb 59f 57f
11:12 5 7 mph 1022.7mb 59f 57f
11:06 7 9 mph 1022.6mb 59f 57f
11:00 5 7 mph 1022.6mb 59f 57f
10:54 5 10 mph 1022.6mb 59f 58f
10:48 5 9 mph 1022.7mb 59f 57f
10:18 6 10 mph 1022.8mb 60f 58f
10:12 7 13 mph 1022.8mb 60f 58f
10:06 9 14 mph 1022.8mb 60f 58f
10:00 9 15 mph 1022.8mb 60f 58f
9:54 11 15 mph 1022.8mb 60f 58f
9:48 9 14 mph 1022.8mb 61f 58f
9:42 13 16 mph 1022.8mb 61f 58f
9:36 9 14 mph 1022.8mb 61f 58f
9:30 14 21 mph 1022.8mb 61f 58f
9:24 13 16 mph 1022.8mb 61f 58f
9:18 9 14 mph 1022.8mb 61f 58f
9:12 10 15 mph 1022.7mb 61f 58f
9:06 11 14 mph 1022.7mb 62f 58f
9:00 8 11 mph 1022.7mb 62f 58f
8:54 9 11 mph 1022.7mb 62f 58f
8:48 10 15 mph 1022.8mb 62f 58f
8:42 8 15 mph 1022.8mb 62f 58f
8:36 9 16 mph 1022.8mb 63f 58f
8:30 13 15 mph 1022.7mb 63f 58f
8:24 11 15 mph 1022.8mb 63f 58f
8:18 14 16 mph 1022.7mb 63f 58f
8:12 10 20 mph 1022.8mb 63f 59f
8:06 11 15 mph 1022.8mb 64f 59f
8:00 10 17 mph 1022.7mb 64f 59f
7:54 13 17 mph 1022.7mb 64f 59f
7:48 14 16 mph 1022.7mb 63f 59f
7:42 8 9 mph 1022.8mb 63f 60f
7:36 8 17 mph 1022.8mb 63f 60f
7:30 14 17 mph 1022.8mb 63f 60f
7:24 7 13 mph 1022.8mb 63f 61f
7:18 10 17 mph 1022.8mb 63f 61f
7:12 11 16 mph 1022.7mb 64f 61f
7:06 9 17 mph 1022.8mb 64f 61f
7:00 13 20 mph 1022.8mb 64f 61f
6:54 15 20 mph 1022.8mb 64f 61f
6:48 15 20 mph 1022.8mb 64f 61f
6:42 14 21 mph 1022.7mb 64f 62f
6:36 15 21 mph 1022.7mb 64f 62f
6:30 13 20 mph 1022.8mb 64f 62f
6:24 14 18 mph 1022.7mb 64f 62f
6:18 10 20 mph 1022.8mb 64f 62f
6:12 11 21 mph 1022.8mb 64f 63f
6:06 15 18 mph 1022.8mb 64f 63f
6:00 17 20 mph 1022.8mb 64f 63f
5:54 15 22 mph 1022.8mb 64f 63f
5:48 17 23 mph 1022.8mb 64f 63f
5:42 15 18 mph 1022.9mb 64f 64f
5:36 9 13 mph 1023mb 64f 64f
5:30 11 17 mph 1022.9mb 64f 63f
5:24 13 16 mph 1023mb 64f 63f
5:18 16 20 mph 1023mb 64f 63f
5:12 16 20 mph 1023mb 64f 63f
5:06 14 17 mph 1023mb 64f 64f
5:00 15 17 mph 1023mb 64f 64f
4:54 17 22 mph 1023mb 64f 63f
4:48 16 22 mph 1023mb 64f 63f
4:42 18 23 mph 1023.1mb 64f 63f
4:36 22 26 mph 1023.1mb 64f 63f
4:30 18 23 mph 1023.1mb 63f 63f
4:24 18 23 mph 1023.1mb 63f 63f
4:18 16 20 mph 1023.2mb 63f 63f
4:12 20 24 mph 1023.3mb 63f 62f
4:06 15 25 mph 1023.2mb 63f 63f
4:00 22 25 mph 1023.3mb 63f 62f
3:54 21 25 mph 1023.2mb 63f 63f
3:48 22 24 mph 1023.2mb 63f 64f
3:42 17 23 mph 1023.3mb 62f 64f
3:36 21 24 mph 1023.2mb 63f 64f
3:30 18 24 mph 1023.2mb 62f 64f
3:24 21 26 mph 1023.2mb 62f 63f
3:18 20 25 mph 1023.2mb 62f 63f
3:12 17 24 mph 1023.3mb 63f 63f
3:06 17 24 mph 1023.3mb 63f 64f
3:00 18 23 mph 1023.3mb 62f 63f
2:54 17 22 mph 1023.3mb 62f 63f
2:48 18 22 mph 1023.3mb 62f 63f
2:42 18 21 mph 1023.3mb 62f 63f
2:36 16 21 mph 1023.4mb 62f 63f
2:30 17 20 mph 1023.4mb 62f 63f
2:24 14 21 mph 1023.5mb 61f 63f
2:18 16 21 mph 1023.5mb 61f 63f
2:12 17 20 mph 1023.5mb 60f 63f
2:06 16 22 mph 1023.5mb 59f 64f
2:00 18 21 mph 1023.5mb 58f 63f
1:54 14 18 mph 1023.5mb 58f 64f
1:48 15 17 mph 1023.5mb 58f 64f
1:42 14 17 mph 1023.6mb 58f 64f
1:36 10 16 mph 1023.6mb 58f 64f
1:30 8 15 mph 1023.6mb 58f 64f
1:24 13 15 mph 1023.7mb 58f 64f
1:18 11 20 mph 1023.7mb 58f 64f
1:12 11 14 mph 1023.7mb 58f 64f
1:06 11 18 mph 1023.7mb 58f 63f
1:00 11 14 mph 1023.6mb 58f 64f
12:54 9 11 mph 1023.7mb 58f 64f
12:48 7 11 mph 1023.7mb 58f 64f
12:42 7 8 mph 1023.7mb 58f 64f
12:36 8 11 mph 1023.8mb 58f 64f
12:30 7 9 mph 1023.8mb 58f 63f
12:24 8 10 mph 1023.8mb 59f 63f
12:18 8 13 mph 1023.8mb 59f 62f
12:12 9 14 mph 1023.8mb 59f 63f
12:06 6 10 mph 1023.9mb 59f 63f
12:00 9 13 mph 1023.9mb 59f 63f
11:54 7 14 mph 1023.9mb 59f 63f
11:48 9 14 mph 1024mb 59f 62f
11:42 10 13 mph 1024mb 59f 62f
11:36 11 14 mph 1024mb 59f 62f
11:30 7 13 mph 1024mb 60f 62f
11:24 8 14 mph 1024mb 60f 62f
11:18 8 11 mph 1024mb 60f 62f
11:12 8 14 mph 1023.9mb 61f 62f
11:06 6 15 mph 1024mb 61f 62f
11:00 11 17 mph 1024mb 61f 62f
10:54 13 17 mph 1024mb 61f 62f
10:48 7 13 mph 1024mb 61f 62f
10:42 10 15 mph 1024mb 61f 61f
10:36 11 15 mph 1023.9mb 61f 61f
10:30 10 16 mph 1023.9mb 61f 61f
10:24 14 16 mph 1024mb 61f 60f
10:18 13 16 mph 1024mb 61f 60f
10:12 11 15 mph 1023.9mb 61f 60f
10:06 9 13 mph 1023.9mb 61f 60f
10:00 11 16 mph 1023.9mb 61f 60f
9:54 14 16 mph 1023.9mb 61f 59f
9:48 13 15 mph 1023.9mb 61f 59f
9:42 9 14 mph 1023.9mb 61f 60f
9:36 9 13 mph 1023.9mb 61f 59f
9:30 11 15 mph 1023.9mb 61f 59f
9:24 9 13 mph 1023.9mb 61f 59f
9:18 8 13 mph 1023.9mb 61f 59f
9:12 8 13 mph 1023.8mb 61f 59f
9:06 9 16 mph 1023.8mb 61f 59f
9:00 11 17 mph 1023.8mb 61f 59f
8:54 16 21 mph 1023.7mb 61f 59f
8:48 14 17 mph 1023.7mb 61f 59f
8:42 9 15 mph 1023.8mb 61f 59f
8:36 9 13 mph 1023.8mb 61f 59f
8:30 8 13 mph 1023.8mb 61f 59f
8:24 9 11 mph 1023.7mb 61f 59f
8:18 7 10 mph 1023.7mb 61f 59f
8:12 8 10 mph 1023.7mb 61f 59f
8:06 7 11 mph 1023.6mb 61f 58f
8:00 8 10 mph 1023.6mb 60f 58f
7:54 6 9 mph 1023.6mb 60f 58f
7:48 6 7 mph 1023.6mb 60f 58f
7:42 6 9 mph 1023.5mb 60f 58f
7:36 5 7 mph 1023.5mb 61f 58f
7:30 3 8 mph 1023.5mb 61f 58f
7:24 6 8 mph 1023.5mb 60f 58f
7:18 6 9 mph 1023.5mb 60f 58f
7:12 3 8 mph 1023.5mb 60f 57f
7:06 5 6 mph 1023.5mb 61f 58f
7:00 3 7 mph 1023.4mb 61f 57f
6:54 3 6 mph 1023.4mb 61f 57f
6:48 5 7 mph 1023.4mb 61f 57f
6:42 7 9 mph 1023.4mb 61f 57f
6:36 6 9 mph 1023.3mb 61f 56f
6:30 6 13 mph 1023.2mb 61f 56f
6:24 6 11 mph 1023.3mb 62f 56f
6:18 6 9 mph 1023.2mb 62f 56f
6:12 3 6 mph 1023.1mb 61f 56f
6:06 3 7 mph 1023.1mb 61f 56f
6:00 6 10 mph 1023mb 61f 56f
5:54 10 14 mph 1022.9mb 61f 56f
5:48 10 13 mph 1022.8mb 61f 56f
5:42 8 11 mph 1022.8mb 60f 56f
5:36 8 14 mph 1022.8mb 60f 56f
5:30 8 13 mph 1022.8mb 60f 56f
5:24 10 14 mph 1022.8mb 60f 56f
5:18 6 8 mph 1022.8mb 60f 56f
5:12 6 9 mph 1022.8mb 60f 56f
5:06 6 8 mph 1022.8mb 60f 56f
5:00 7 11 mph 1022.7mb 60f 56f
4:54 10 14 mph 1022.6mb 60f 56f
4:48 9 14 mph 1022.6mb 60f 56f
4:42 8 11 mph 1022.7mb 60f 56f
4:36 9 14 mph 1022.7mb 60f 56f
4:30 10 13 mph 1022.7mb 60f 57f
4:24 8 13 mph 1022.7mb 60f 56f
4:18 8 13 mph 1022.7mb 60f 56f
4:12 11 15 mph 1022.7mb 60f 57f
4:06 8 13 mph 1022.7mb 60f 57f
4:00 10 14 mph 1022.7mb 60f 57f
3:54 8 13 mph 1022.6mb 60f 57f
3:48 8 11 mph 1022.6mb 60f 57f
3:42 7 13 mph 1022.6mb 60f 57f
3:36 8 14 mph 1022.6mb 60f 57f
3:30 7 11 mph 1022.6mb 60f 57f
3:24 9 13 mph 1022.6mb 60f 57f
3:18 10 14 mph 1022.6mb 60f 57f
3:12 6 11 mph 1022.6mb 60f 57f
3:06 7 11 mph 1022.6mb 60f 57f
3:00 8 15 mph 1022.6mb 60f 57f
2:54 8 11 mph 1022.6mb 60f 57f
2:48 6 10 mph 1022.6mb 60f 57f
2:42 6 10 mph 1022.6mb 60f 57f
2:36 7 13 mph 1022.6mb 60f 57f
2:30 7 13 mph 1022.6mb 60f 57f
2:24 10 14 mph 1022.6mb 60f 57f
2:18 8 15 mph 1022.6mb 60f 57f
2:12 10 14 mph 1022.6mb 60f 57f
2:06 9 14 mph 1022.6mb 60f 57f
2:00 10 15 mph 1022.6mb 60f 57f
1:54 8 10 mph 1022.6mb 60f 57f
1:48 6 10 mph 1022.6mb 60f 57f
1:42 9 13 mph 1022.6mb 60f 57f
1:36 7 14 mph 1022.5mb 60f 57f
1:30 9 15 mph 1022.5mb 60f 57f
1:24 6 10 mph 1022.6mb 60f 57f
1:18 7 13 mph 1022.6mb 60f 58f
1:12 9 13 mph 1022.6mb 59f 58f
1:06 9 13 mph 1022.6mb 59f 58f
1:00 8 10 mph 1022.7mb 59f 58f
12:54 8 14 mph 1022.7mb 59f 58f
12:48 8 15 mph 1022.6mb 59f 58f
12:42 9 14 mph 1022.6mb 59f 58f
12:36 9 13 mph 1022.5mb 59f 58f
12:30 7 11 mph 1022.5mb 58f 58f
12:24 7 17 mph 1022.5mb 58f 58f
12:18 8 16 mph 1022.5mb 58f 58f
12:12 10 14 mph 1022.5mb 58f 58f
12:06 8 17 mph 1022.4mb 57f 58f
12:00 9 16 mph 1022.5mb 57f 58f
Fr 08/18 11:54 10 14 mph 1022.5mb 57f 58f
11:48 8 11 mph 1022.5mb 57f -
11:42 7 9 mph 1022.5mb 57f -
11:36 7 14 mph 1022.5mb 57f -
11:30 9 15 mph 1022.4mb 57f 58f
11:24 10 14 mph 1022.5mb 57f 58f
11:18 11 16 mph 1022.5mb 57f 58f
11:12 9 13 mph 1022.5mb 58f 59f
11:06 10 14 mph 1022.6mb 58f 59f
11:00 11 14 mph 1022.5mb 58f 59f
10:54 13 18 mph 1022.5mb 58f 59f
10:48 13 17 mph 1022.4mb 58f 59f
10:42 16 21 mph 1022.4mb 58f 59f
10:36 16 20 mph 1022.4mb 58f 59f
10:30 14 21 mph 1022.4mb 58f 59f
10:24 11 18 mph 1022.5mb 58f 59f
10:18 13 17 mph 1022.5mb 58f 59f
10:12 13 16 mph 1022.5mb 58f 59f
10:06 13 17 mph 1022.4mb 59f 59f
10:00 14 17 mph 1022.4mb 59f 59f
9:54 16 18 mph 1022.4mb 59f 59f
9:48 16 18 mph 1022.4mb 60f 60f
9:42 15 18 mph 1022.4mb 60f 60f
9:36 13 17 mph 1022.5mb 60f 60f
9:30 13 18 mph 1022.5mb 60f 60f
9:24 15 20 mph 1022.4mb 60f 60f
9:18 14 17 mph 1022.4mb 60f 60f
9:12 13 16 mph 1022.5mb 60f 60f
9:06 14 18 mph 1022.5mb 60f 60f
9:00 16 21 mph 1022.5mb 60f 60f
8:54 14 21 mph 1022.4mb 60f 60f
8:48 16 20 mph 1022.3mb 60f 60f
8:42 14 18 mph 1022.3mb 61f 60f
8:36 13 17 mph 1022.3mb 61f 60f
8:30 13 16 mph 1022.2mb 61f 60f
8:24 11 17 mph 1022.2mb 61f 60f
8:18 13 16 mph 1022.2mb 62f 61f
8:12 14 16 mph 1022.1mb 62f 61f
8:06 13 18 mph 1022.1mb 62f 61f
8:00 16 18 mph 1022mb 62f 61f
7:54 10 14 mph 1021.9mb 62f 63f
7:48 9 11 mph 1021.9mb 62f 63f
7:42 7 11 mph 1021.9mb 62f 63f
7:36 9 11 mph 1022mb 62f 63f
7:30 5 7 mph 1022mb 62f 63f
7:24 5 6 mph 1022mb 62f 63f
7:18 3 5 mph 1021.9mb 62f 63f
7:12  -  0 mph 1021.8mb 62f 62f
7:06  -  2 mph 1021.8mb 62f 62f
7:00 1 5 mph 1021.9mb 62f 62f
6:54 3 8 mph 1022mb 62f 62f
6:48 7 9 mph 1022.1mb 62f 61f
6:42 6 9 mph 1022.1mb 62f 62f
6:36 8 10 mph 1022.1mb 62f 61f